sensor_id;sensor_type;location;lat;lon;timestamp;pressure;altitude;pressure_sealevel;temperature;humidity
19096;BME280;9680;52.520;13.332;2022-12-29T00:02:08;100380.91;;;8.44;81.33
19096;BME280;9680;52.520;13.332;2022-12-29T00:04:35;100367.91;;;8.45;81.43
19096;BME280;9680;52.520;13.332;2022-12-29T00:07:02;100365.19;;;8.49;81.03
19096;BME280;9680;52.520;13.332;2022-12-29T00:09:30;100362.56;;;8.50;81.17
19096;BME280;9680;52.520;13.332;2022-12-29T00:11:57;100357.38;;;8.50;80.88
19096;BME280;9680;52.520;13.332;2022-12-29T00:14:25;100349.56;;;8.50;80.95
19096;BME280;9680;52.520;13.332;2022-12-29T00:17:09;100351.28;;;8.51;80.98
19096;BME280;9680;52.520;13.332;2022-12-29T00:19:36;100358.16;;;8.52;80.72
19096;BME280;9680;52.520;13.332;2022-12-29T00:22:20;100364.03;;;8.57;80.93
19096;BME280;9680;52.520;13.332;2022-12-29T00:25:08;100349.31;;;8.58;80.76
19096;BME280;9680;52.520;13.332;2022-12-29T00:27:52;100358.72;;;8.60;80.60
19096;BME280;9680;52.520;13.332;2022-12-29T00:30:38;100350.91;;;8.62;80.16
19096;BME280;9680;52.520;13.332;2022-12-29T00:33:26;100347.41;;;8.63;80.33
19096;BME280;9680;52.520;13.332;2022-12-29T00:36:14;100342.19;;;8.63;79.96
19096;BME280;9680;52.520;13.332;2022-12-29T00:38:45;100340.50;;;8.62;79.97
19096;BME280;9680;52.520;13.332;2022-12-29T00:41:31;100347.50;;;8.60;80.37
19096;BME280;9680;52.520;13.332;2022-12-29T00:44:15;100341.38;;;8.63;80.33
19096;BME280;9680;52.520;13.332;2022-12-29T00:46:44;100341.28;;;8.64;80.07
19096;BME280;9680;52.520;13.332;2022-12-29T00:49:13;100342.19;;;8.63;80.23
19096;BME280;9680;52.520;13.332;2022-12-29T00:51:59;100331.88;;;8.62;80.26
19096;BME280;9680;52.520;13.332;2022-12-29T00:54:28;100325.88;;;8.59;80.42
19096;BME280;9680;52.520;13.332;2022-12-29T00:56:55;100331.94;;;8.60;80.26
19096;BME280;9680;52.520;13.332;2022-12-29T00:59:22;100331.03;;;8.61;80.30
19096;BME280;9680;52.520;13.332;2022-12-29T01:01:52;100338.81;;;8.61;80.49
19096;BME280;9680;52.520;13.332;2022-12-29T01:04:19;100338.03;;;8.59;80.40
19096;BME280;9680;52.520;13.332;2022-12-29T01:06:48;100329.34;;;8.60;80.27
19096;BME280;9680;52.520;13.332;2022-12-29T01:09:15;100323.25;;;8.61;80.29
19096;BME280;9680;52.520;13.332;2022-12-29T01:11:59;100324.94;;;8.62;80.51
19096;BME280;9680;52.520;13.332;2022-12-29T01:14:27;100324.03;;;8.63;80.44
19096;BME280;9680;52.520;13.332;2022-12-29T01:16:55;100326.63;;;8.63;80.46
19096;BME280;9680;52.520;13.332;2022-12-29T01:19:22;100318.84;;;8.63;80.14
19096;BME280;9680;52.520;13.332;2022-12-29T01:21:49;100323.13;;;8.64;80.33
19096;BME280;9680;52.520;13.332;2022-12-29T01:24:19;100316.19;;;8.65;80.02
19096;BME280;9680;52.520;13.332;2022-12-29T01:26:46;100330.00;;;8.65;80.13
19096;BME280;9680;52.520;13.332;2022-12-29T01:29:16;100330.09;;;8.64;80.14
19096;BME280;9680;52.520;13.332;2022-12-29T01:31:44;100316.19;;;8.65;79.87
19096;BME280;9680;52.520;13.332;2022-12-29T01:34:12;100316.97;;;8.67;79.90
19096;BME280;9680;52.520;13.332;2022-12-29T01:36:39;100309.97;;;8.69;79.87
19096;BME280;9680;52.520;13.332;2022-12-29T01:39:06;100308.28;;;8.68;79.97
19096;BME280;9680;52.520;13.332;2022-12-29T01:41:33;100312.63;;;8.67;79.55
19096;BME280;9680;52.520;13.332;2022-12-29T01:44:00;100323.00;;;8.67;79.76
19096;BME280;9680;52.520;13.332;2022-12-29T01:46:31;100322.19;;;8.67;80.05
19096;BME280;9680;52.520;13.332;2022-12-29T01:49:04;100316.09;;;8.68;80.04
19096;BME280;9680;52.520;13.332;2022-12-29T01:51:35;100313.41;;;8.69;80.31
19096;BME280;9680;52.520;13.332;2022-12-29T01:54:05;100309.22;;;8.65;80.02
19096;BME280;9680;52.520;13.332;2022-12-29T01:56:34;100313.59;;;8.65;80.01
19096;BME280;9680;52.520;13.332;2022-12-29T01:59:04;100301.53;;;8.64;80.49
19096;BME280;9680;52.520;13.332;2022-12-29T02:01:32;100293.72;;;8.64;80.35
19096;BME280;9680;52.520;13.332;2022-12-29T02:04:00;100293.72;;;8.64;80.60
19096;BME280;9680;52.520;13.332;2022-12-29T02:06:29;100292.88;;;8.63;80.93
19096;BME280;9680;52.520;13.332;2022-12-29T02:09:00;100289.44;;;8.63;80.92
19096;BME280;9680;52.520;13.332;2022-12-29T02:11:28;100280.81;;;8.60;81.07
19096;BME280;9680;52.520;13.332;2022-12-29T02:13:56;100281.81;;;8.58;81.43
19096;BME280;9680;52.520;13.332;2022-12-29T02:16:40;100274.97;;;8.55;81.42
19096;BME280;9680;52.520;13.332;2022-12-29T02:19:45;100276.78;;;8.53;81.86
19096;BME280;9680;52.520;13.332;2022-12-29T02:22:24;100259.47;;;8.54;81.82
19096;BME280;9680;52.520;13.332;2022-12-29T02:25:29;100270.66;;;8.54;81.69
19096;BME280;9680;52.520;13.332;2022-12-29T02:28:25;100273.22;;;8.56;81.35
19096;BME280;9680;52.520;13.332;2022-12-29T02:31:08;100256.66;;;8.58;81.09
19096;BME280;9680;52.520;13.332;2022-12-29T02:33:46;100263.56;;;8.59;80.79
19096;BME280;9680;52.520;13.332;2022-12-29T02:36:23;100262.59;;;8.62;81.35
19096;BME280;9680;52.520;13.332;2022-12-29T02:39:02;100259.09;;;8.63;80.86
19096;BME280;9680;52.520;13.332;2022-12-29T02:41:33;100249.41;;;8.68;80.77
19096;BME280;9680;52.520;13.332;2022-12-29T02:44:08;100246.63;;;8.73;80.12
19096;BME280;9680;52.520;13.332;2022-12-29T02:46:46;100246.56;;;8.74;79.76
19096;BME280;9680;52.520;13.332;2022-12-29T02:49:20;100249.03;;;8.78;79.57
19096;BME280;9680;52.520;13.332;2022-12-29T02:51:52;100249.00;;;8.79;79.35
19096;BME280;9680;52.520;13.332;2022-12-29T02:54:23;100251.47;;;8.82;79.30
19096;BME280;9680;52.520;13.332;2022-12-29T02:57:11;100244.28;;;8.89;79.09
19096;BME280;9680;52.520;13.332;2022-12-29T02:59:39;100249.34;;;8.92;78.69
19096;BME280;9680;52.520;13.332;2022-12-29T03:02:28;100246.72;;;8.94;78.49
19096;BME280;9680;52.520;13.332;2022-12-29T03:05:17;100244.06;;;8.95;77.96
19096;BME280;9680;52.520;13.332;2022-12-29T03:07:50;100226.53;;;9.00;77.98
19096;BME280;9680;52.520;13.332;2022-12-29T03:10:32;100227.19;;;9.06;77.52
19096;BME280;9680;52.520;13.332;2022-12-29T03:13:06;100224.34;;;9.12;77.36
19096;BME280;9680;52.520;13.332;2022-12-29T03:16:01;100220.66;;;9.17;76.81
19096;BME280;9680;52.520;13.332;2022-12-29T03:18:39;100205.00;;;9.19;76.25
19096;BME280;9680;52.520;13.332;2022-12-29T03:21:11;100209.09;;;9.25;76.21
19096;BME280;9680;52.520;13.332;2022-12-29T03:23:41;100214.19;;;9.28;76.22
19096;BME280;9680;52.520;13.332;2022-12-29T03:26:11;100218.34;;;9.32;76.24
19096;BME280;9680;52.520;13.332;2022-12-29T03:28:43;100211.22;;;9.37;75.89
19096;BME280;9680;52.520;13.332;2022-12-29T03:31:15;100207.56;;;9.41;75.42
19096;BME280;9680;52.520;13.332;2022-12-29T03:33:46;100212.69;;;9.43;75.49
19096;BME280;9680;52.520;13.332;2022-12-29T03:36:22;100215.28;;;9.43;74.92
19096;BME280;9680;52.520;13.332;2022-12-29T03:38:57;100223.81;;;9.46;75.28
19096;BME280;9680;52.520;13.332;2022-12-29T03:41:30;100206.41;;;9.49;74.80
19096;BME280;9680;52.520;13.332;2022-12-29T03:44:00;100199.38;;;9.51;75.01
19096;BME280;9680;52.520;13.332;2022-12-29T03:46:26;100202.75;;;9.53;74.97
19096;BME280;9680;52.520;13.332;2022-12-29T03:48:55;100210.47;;;9.54;74.62
19096;BME280;9680;52.520;13.332;2022-12-29T03:51:22;100213.09;;;9.54;74.53
19096;BME280;9680;52.520;13.332;2022-12-29T03:53:49;100215.63;;;9.56;74.65
19096;BME280;9680;52.520;13.332;2022-12-29T03:56:16;100209.56;;;9.55;74.63
19096;BME280;9680;52.520;13.332;2022-12-29T03:58:43;100212.91;;;9.59;74.84
19096;BME280;9680;52.520;13.332;2022-12-29T04:01:17;100214.47;;;9.63;74.86
19096;BME280;9680;52.520;13.332;2022-12-29T04:03:44;100203.09;;;9.66;74.70
19096;BME280;9680;52.520;13.332;2022-12-29T04:06:12;100203.09;;;9.66;74.60
19096;BME280;9680;52.520;13.332;2022-12-29T04:08:46;100186.44;;;9.70;74.69
19096;BME280;9680;52.520;13.332;2022-12-29T04:11:13;100197.50;;;9.75;74.57
19096;BME280;9680;52.520;13.332;2022-12-29T04:13:40;100204.38;;;9.76;74.21
19096;BME280;9680;52.520;13.332;2022-12-29T04:16:09;100195.69;;;9.77;74.17
19096;BME280;9680;52.520;13.332;2022-12-29T04:18:36;100201.56;;;9.81;73.91
19096;BME280;9680;52.520;13.332;2022-12-29T04:21:03;100188.44;;;9.84;73.96
19096;BME280;9680;52.520;13.332;2022-12-29T04:23:34;100199.63;;;9.86;73.91
19096;BME280;9680;52.520;13.332;2022-12-29T04:26:04;100216.00;;;9.88;73.90
19096;BME280;9680;52.520;13.332;2022-12-29T04:28:33;100214.25;;;9.88;73.64
19096;BME280;9680;52.520;13.332;2022-12-29T04:31:21;100196.97;;;9.87;73.63
19096;BME280;9680;52.520;13.332;2022-12-29T04:33:49;100194.50;;;9.84;73.62
19096;BME280;9680;52.520;13.332;2022-12-29T04:36:16;100185.00;;;9.83;73.69
19096;BME280;9680;52.520;13.332;2022-12-29T04:38:44;100190.19;;;9.83;73.80
19096;BME280;9680;52.520;13.332;2022-12-29T04:41:11;100186.81;;;9.81;73.78
19096;BME280;9680;52.520;13.332;2022-12-29T04:43:38;100184.50;;;9.75;73.91
19096;BME280;9680;52.520;13.332;2022-12-29T04:46:08;100180.53;;;9.66;73.95
19096;BME280;9680;52.520;13.332;2022-12-29T04:48:43;100184.34;;;9.57;74.20
19096;BME280;9680;52.520;13.332;2022-12-29T04:51:30;100180.19;;;9.53;74.39
19096;BME280;9680;52.520;13.332;2022-12-29T04:53:58;100174.22;;;9.51;74.79
19096;BME280;9680;52.520;13.332;2022-12-29T04:56:26;100170.69;;;9.52;74.95
19096;BME280;9680;52.520;13.332;2022-12-29T04:58:53;100175.78;;;9.55;74.67
19096;BME280;9680;52.520;13.332;2022-12-29T05:01:20;100171.28;;;9.59;75.08
19096;BME280;9680;52.520;13.332;2022-12-29T05:03:50;100184.22;;;9.60;74.68
19096;BME280;9680;52.520;13.332;2022-12-29T05:06:17;100178.91;;;9.64;74.46
19096;BME280;9680;52.520;13.332;2022-12-29T05:08:44;100174.53;;;9.64;74.45
19096;BME280;9680;52.520;13.332;2022-12-29T05:11:13;100164.13;;;9.64;74.55
19096;BME280;9680;52.520;13.332;2022-12-29T05:13:40;100171.88;;;9.66;74.68
19096;BME280;9680;52.520;13.332;2022-12-29T05:16:07;100164.88;;;9.68;74.48
19096;BME280;9680;52.520;13.332;2022-12-29T05:18:34;100162.25;;;9.68;74.41
19096;BME280;9680;52.520;13.332;2022-12-29T05:21:02;100154.47;;;9.68;74.39
19096;BME280;9680;52.520;13.332;2022-12-29T05:23:29;100154.47;;;9.68;74.48
19096;BME280;9680;52.520;13.332;2022-12-29T05:26:00;100150.88;;;9.70;74.47
19096;BME280;9680;52.520;13.332;2022-12-29T05:28:40;100147.44;;;9.70;74.56
19096;BME280;9680;52.520;13.332;2022-12-29T05:31:13;100143.91;;;9.71;74.46
19096;BME280;9680;52.520;13.332;2022-12-29T05:33:39;100149.81;;;9.74;74.90
19096;BME280;9680;52.520;13.332;2022-12-29T05:36:07;100150.47;;;9.80;74.69
19096;BME280;9680;52.520;13.332;2022-12-29T05:38:37;100143.25;;;9.86;74.96
19096;BME280;9680;52.520;13.332;2022-12-29T05:41:04;100131.84;;;9.89;74.51
19096;BME280;9680;52.520;13.332;2022-12-29T05:44:01;100136.84;;;9.94;74.65
19096;BME280;9680;52.520;13.332;2022-12-29T05:46:47;100140.16;;;9.97;74.75
19096;BME280;9680;52.520;13.332;2022-12-29T05:49:20;100138.25;;;10.01;74.45
19096;BME280;9680;52.520;13.332;2022-12-29T05:52:08;100143.25;;;10.05;74.39
19096;BME280;9680;52.520;13.332;2022-12-29T05:54:35;100132.78;;;10.07;74.44
19096;BME280;9680;52.520;13.332;2022-12-29T05:57:07;100135.22;;;10.10;74.09
19096;BME280;9680;52.520;13.332;2022-12-29T05:59:37;100126.38;;;10.14;74.26
19096;BME280;9680;52.520;13.332;2022-12-29T06:02:04;100134.03;;;10.17;74.37
19096;BME280;9680;52.520;13.332;2022-12-29T06:04:31;100126.06;;;10.20;74.39
19096;BME280;9680;52.520;13.332;2022-12-29T06:06:59;100119.97;;;10.22;74.31
19096;BME280;9680;52.520;13.332;2022-12-29T06:09:40;100124.09;;;10.26;74.34
19096;BME280;9680;52.520;13.332;2022-12-29T06:12:08;100136.91;;;10.30;74.37
19096;BME280;9680;52.520;13.332;2022-12-29T06:14:39;100126.44;;;10.32;74.04
19096;BME280;9680;52.520;13.332;2022-12-29T06:17:06;100117.72;;;10.33;73.90
19096;BME280;9680;52.520;13.332;2022-12-29T06:19:33;100120.19;;;10.36;74.26
19096;BME280;9680;52.520;13.332;2022-12-29T06:22:00;100135.72;;;10.38;74.04
19096;BME280;9680;52.520;13.332;2022-12-29T06:24:31;100130.34;;;10.42;74.12
19096;BME280;9680;52.520;13.332;2022-12-29T06:26:58;100126.88;;;10.42;73.85
19096;BME280;9680;52.520;13.332;2022-12-29T06:29:26;100131.03;;;10.46;74.02
19096;BME280;9680;52.520;13.332;2022-12-29T06:31:57;100133.56;;;10.47;74.11
19096;BME280;9680;52.520;13.332;2022-12-29T06:34:24;100124.84;;;10.48;73.96
19096;BME280;9680;52.520;13.332;2022-12-29T06:36:51;100124.91;;;10.47;73.63
19096;BME280;9680;52.520;13.332;2022-12-29T06:39:18;100132.66;;;10.48;73.63
19096;BME280;9680;52.520;13.332;2022-12-29T06:41:58;100137.72;;;10.52;73.67
19096;BME280;9680;52.520;13.332;2022-12-29T06:44:45;100137.84;;;10.48;73.79
19096;BME280;9680;52.520;13.332;2022-12-29T06:47:13;100140.38;;;10.50;73.73
19096;BME280;9680;52.520;13.332;2022-12-29T06:49:40;100142.97;;;10.50;73.74
19096;BME280;9680;52.520;13.332;2022-12-29T06:52:07;100145.53;;;10.52;73.95
19096;BME280;9680;52.520;13.332;2022-12-29T06:54:34;100143.84;;;10.51;73.54
19096;BME280;9680;52.520;13.332;2022-12-29T06:57:00;100144.19;;;10.43;73.55
19096;BME280;9680;52.520;13.332;2022-12-29T06:59:27;100158.38;;;10.35;73.77
19096;BME280;9680;52.520;13.332;2022-12-29T07:01:54;100156.00;;;10.31;73.98
19096;BME280;9680;52.520;13.332;2022-12-29T07:04:22;100151.06;;;10.25;74.33
19096;BME280;9680;52.520;13.332;2022-12-29T07:06:49;100150.38;;;10.21;74.48
19096;BME280;9680;52.520;13.332;2022-12-29T07:09:16;100141.78;;;10.19;74.86
19096;BME280;9680;52.520;13.332;2022-12-29T07:11:42;100145.50;;;10.13;74.79
19096;BME280;9680;52.520;13.332;2022-12-29T07:14:10;100150.78;;;10.12;75.07
19096;BME280;9680;52.520;13.332;2022-12-29T07:16:38;100157.69;;;10.13;75.39
19096;BME280;9680;52.520;13.332;2022-12-29T07:19:04;100166.03;;;10.19;75.17
19096;BME280;9680;52.520;13.332;2022-12-29T07:21:33;100161.59;;;10.22;74.91
19096;BME280;9680;52.520;13.332;2022-12-29T07:24:00;100158.38;;;10.16;74.88
19096;BME280;9680;52.520;13.332;2022-12-29T07:26:26;100161.19;;;10.12;74.84
19096;BME280;9680;52.520;13.332;2022-12-29T07:28:53;100157.09;;;10.06;75.17
19096;BME280;9680;52.520;13.332;2022-12-29T07:31:22;100157.34;;;10.01;75.22
19096;BME280;9680;52.520;13.332;2022-12-29T07:33:49;100150.44;;;10.00;75.59
19096;BME280;9680;52.520;13.332;2022-12-29T07:36:16;100153.09;;;9.99;75.50
19096;BME280;9680;52.520;13.332;2022-12-29T07:38:44;100140.94;;;9.99;75.63
19096;BME280;9680;52.520;13.332;2022-12-29T07:41:11;100145.22;;;10.00;76.01
19096;BME280;9680;52.520;13.332;2022-12-29T07:43:38;100154.59;;;10.04;75.92
19096;BME280;9680;52.520;13.332;2022-12-29T07:46:23;100142.91;;;10.13;76.07
19096;BME280;9680;52.520;13.332;2022-12-29T07:48:50;100144.53;;;10.16;75.49
19096;BME280;9680;52.520;13.332;2022-12-29T07:51:18;100143.53;;;10.18;75.63
19096;BME280;9680;52.520;13.332;2022-12-29T07:53:46;100146.75;;;10.24;75.44
19096;BME280;9680;52.520;13.332;2022-12-29T07:56:13;100147.34;;;10.30;75.53
19096;BME280;9680;52.520;13.332;2022-12-29T07:58:39;100147.78;;;10.40;75.45
19096;BME280;9680;52.520;13.332;2022-12-29T08:01:07;100152.78;;;10.45;75.03
19096;BME280;9680;52.520;13.332;2022-12-29T08:03:34;100147.34;;;10.49;74.94
19096;BME280;9680;52.520;13.332;2022-12-29T08:06:02;100156.09;;;10.48;74.83
19096;BME280;9680;52.520;13.332;2022-12-29T08:08:28;100147.34;;;10.49;74.82
19096;BME280;9680;52.520;13.332;2022-12-29T08:10:56;100151.72;;;10.49;74.67
19096;BME280;9680;52.520;13.332;2022-12-29T08:13:23;100156.72;;;10.54;74.74
19096;BME280;9680;52.520;13.332;2022-12-29T08:15:50;100153.97;;;10.57;74.58
19096;BME280;9680;52.520;13.332;2022-12-29T08:18:16;100142.47;;;10.61;74.55
19096;BME280;9680;52.520;13.332;2022-12-29T08:20:43;100146.63;;;10.65;74.67
19096;BME280;9680;52.520;13.332;2022-12-29T08:23:10;100152.59;;;10.67;74.17
19096;BME280;9680;52.520;13.332;2022-12-29T08:25:39;100153.53;;;10.66;74.20
19096;BME280;9680;52.520;13.332;2022-12-29T08:28:07;100157.47;;;10.56;74.05
19096;BME280;9680;52.520;13.332;2022-12-29T08:30:35;100146.72;;;10.44;74.28
19096;BME280;9680;52.520;13.332;2022-12-29T08:33:02;100159.16;;;10.38;74.72
19096;BME280;9680;52.520;13.332;2022-12-29T08:35:29;100141.34;;;10.28;74.82
19096;BME280;9680;52.520;13.332;2022-12-29T08:37:57;100121.66;;;10.23;75.18
19096;BME280;9680;52.520;13.332;2022-12-29T08:40:24;100137.97;;;10.26;75.35
19096;BME280;9680;52.520;13.332;2022-12-29T08:42:52;100135.38;;;10.26;75.33
19096;BME280;9680;52.520;13.332;2022-12-29T08:45:20;100140.63;;;10.25;75.37
19096;BME280;9680;52.520;13.332;2022-12-29T08:47:47;100138.91;;;10.25;75.42
19096;BME280;9680;52.520;13.332;2022-12-29T08:50:14;100138.47;;;10.34;75.82
19096;BME280;9680;52.520;13.332;2022-12-29T08:52:40;100145.59;;;10.50;75.46
19096;BME280;9680;52.520;13.332;2022-12-29T08:55:16;100139.81;;;10.62;74.97
19096;BME280;9680;52.520;13.332;2022-12-29T08:57:53;100142.81;;;10.72;74.38
19096;BME280;9680;52.520;13.332;2022-12-29T09:00:22;100150.31;;;10.78;73.99
19096;BME280;9680;52.520;13.332;2022-12-29T09:02:49;100142.28;;;10.83;73.97
19096;BME280;9680;52.520;13.332;2022-12-29T09:05:16;100136.06;;;10.86;73.88
19096;BME280;9680;52.520;13.332;2022-12-29T09:07:43;100128.34;;;10.84;73.68
19096;BME280;9680;52.520;13.332;2022-12-29T09:10:10;100141.59;;;10.80;73.81
19096;BME280;9680;52.520;13.332;2022-12-29T09:12:36;100130.56;;;10.74;73.85
19096;BME280;9680;52.520;13.332;2022-12-29T09:15:04;100136.81;;;10.70;74.06
19096;BME280;9680;52.520;13.332;2022-12-29T09:17:33;100129.88;;;10.71;74.02
19096;BME280;9680;52.520;13.332;2022-12-29T09:20:10;100128.72;;;10.76;73.92
19096;BME280;9680;52.520;13.332;2022-12-29T09:22:37;100128.41;;;10.83;73.95
19096;BME280;9680;52.520;13.332;2022-12-29T09:25:05;100128.06;;;10.90;74.10
19096;BME280;9680;52.520;13.332;2022-12-29T09:27:31;100127.59;;;11.00;73.86
19096;BME280;9680;52.520;13.332;2022-12-29T09:29:58;100125.44;;;11.08;73.61
19096;BME280;9680;52.520;13.332;2022-12-29T09:32:25;100122.38;;;11.17;73.53
19096;BME280;9680;52.520;13.332;2022-12-29T09:34:53;100119.53;;;11.22;72.98
19096;BME280;9680;52.520;13.332;2022-12-29T09:37:19;100121.22;;;11.23;73.01
19096;BME280;9680;52.520;13.332;2022-12-29T09:39:46;100103.81;;;11.24;72.81
19096;BME280;9680;52.520;13.332;2022-12-29T09:42:18;100106.34;;;11.25;72.73
19096;BME280;9680;52.520;13.332;2022-12-29T09:44:56;100113.19;;;11.28;72.54
19096;BME280;9680;52.520;13.332;2022-12-29T09:47:28;100105.88;;;11.34;72.33
19096;BME280;9680;52.520;13.332;2022-12-29T09:50:02;100099.88;;;11.50;72.66
19096;BME280;9680;52.520;13.332;2022-12-29T09:52:32;100106.31;;;11.60;72.11
19096;BME280;9680;52.520;13.332;2022-12-29T09:55:03;100108.59;;;11.67;71.85
19096;BME280;9680;52.520;13.332;2022-12-29T09:57:34;100105.81;;;11.70;71.46
19096;BME280;9680;52.520;13.332;2022-12-29T10:00:10;100106.66;;;11.70;71.41
19096;BME280;9680;52.520;13.332;2022-12-29T10:02:40;100115.00;;;11.77;71.64
19096;BME280;9680;52.520;13.332;2022-12-29T10:05:23;100126.28;;;11.77;71.22
19096;BME280;9680;52.520;13.332;2022-12-29T10:08:02;100112.72;;;11.71;71.19
19096;BME280;9680;52.520;13.332;2022-12-29T10:10:35;100120.88;;;11.64;71.17
19096;BME280;9680;52.520;13.332;2022-12-29T10:13:21;100109.75;;;11.61;71.67
19096;BME280;9680;52.520;13.332;2022-12-29T10:15:59;100108.94;;;11.60;71.61
19096;BME280;9680;52.520;13.332;2022-12-29T10:18:48;100099.38;;;11.59;72.08
19096;BME280;9680;52.520;13.332;2022-12-29T10:21:26;100099.91;;;11.66;71.87
19096;BME280;9680;52.520;13.332;2022-12-29T10:23:56;100094.03;;;11.78;71.53
19096;BME280;9680;52.520;13.332;2022-12-29T10:26:26;100099.78;;;11.85;71.25
19096;BME280;9680;52.520;13.332;2022-12-29T10:28:56;100102.34;;;12.03;71.26
19096;BME280;9680;52.520;13.332;2022-12-29T10:31:28;100100.00;;;12.30;71.16
19096;BME280;9680;52.520;13.332;2022-12-29T10:34:02;100092.56;;;12.55;70.00
19096;BME280;9680;52.520;13.332;2022-12-29T10:36:35;100094.06;;;12.75;69.54
19096;BME280;9680;52.520;13.332;2022-12-29T10:39:11;100099.88;;;12.94;68.62
19096;BME280;9680;52.520;13.332;2022-12-29T10:41:44;100092.66;;;13.14;68.27
19096;BME280;9680;52.520;13.332;2022-12-29T10:44:14;100091.16;;;13.24;67.75
19096;BME280;9680;52.520;13.332;2022-12-29T10:46:43;100079.88;;;13.24;67.34
19096;BME280;9680;52.520;13.332;2022-12-29T10:49:15;100078.44;;;13.18;67.37
19096;BME280;9680;52.520;13.332;2022-12-29T10:51:46;100080.44;;;13.15;66.91
19096;BME280;9680;52.520;13.332;2022-12-29T10:54:18;100082.66;;;13.06;67.07
19096;BME280;9680;52.520;13.332;2022-12-29T10:56:53;100084.22;;;13.09;67.26
19096;BME280;9680;52.520;13.332;2022-12-29T10:59:23;100074.25;;;13.16;67.42
19096;BME280;9680;52.520;13.332;2022-12-29T11:01:58;100079.38;;;13.17;67.08
19096;BME280;9680;52.520;13.332;2022-12-29T11:04:45;100073.03;;;13.21;66.96
19096;BME280;9680;52.520;13.332;2022-12-29T11:07:20;100075.75;;;13.20;66.59
19096;BME280;9680;52.520;13.332;2022-12-29T11:09:47;100095.38;;;13.13;66.52
19096;BME280;9680;52.520;13.332;2022-12-29T11:12:22;100089.19;;;13.14;67.03
19096;BME280;9680;52.520;13.332;2022-12-29T11:15:02;100073.94;;;13.06;66.58
19096;BME280;9680;52.520;13.332;2022-12-29T11:17:43;100080.22;;;13.03;66.95
19096;BME280;9680;52.520;13.332;2022-12-29T11:20:30;100080.97;;;13.05;67.03
19096;BME280;9680;52.520;13.332;2022-12-29T11:22:59;100084.91;;;13.13;67.22
19096;BME280;9680;52.520;13.332;2022-12-29T11:25:26;100087.59;;;13.11;66.59
19096;BME280;9680;52.520;13.332;2022-12-29T11:27:58;100091.25;;;13.08;66.84
19096;BME280;9680;52.520;13.332;2022-12-29T11:30:28;100098.97;;;13.10;66.87
19096;BME280;9680;52.520;13.332;2022-12-29T11:32:56;100100.09;;;13.06;66.91
19096;BME280;9680;52.520;13.332;2022-12-29T11:35:33;100113.34;;;13.03;67.38
19096;BME280;9680;52.520;13.332;2022-12-29T11:38:02;100112.78;;;12.98;67.58
19096;BME280;9680;52.520;13.332;2022-12-29T11:40:37;100098.13;;;12.95;68.19
19096;BME280;9680;52.520;13.332;2022-12-29T11:43:05;100104.88;;;12.99;68.61
19096;BME280;9680;52.520;13.332;2022-12-29T11:45:34;100108.06;;;13.04;68.31
19096;BME280;9680;52.520;13.332;2022-12-29T11:48:06;100098.69;;;13.00;68.76
19096;BME280;9680;52.520;13.332;2022-12-29T11:50:36;100103.94;;;13.00;68.62
19096;BME280;9680;52.520;13.332;2022-12-29T11:53:13;100100.66;;;12.96;68.80
19096;BME280;9680;52.520;13.332;2022-12-29T11:55:51;100109.09;;;12.86;68.95
19096;BME280;9680;52.520;13.332;2022-12-29T11:58:19;100119.84;;;12.81;68.95
19096;BME280;9680;52.520;13.332;2022-12-29T12:00:46;100114.63;;;12.65;68.95
19096;BME280;9680;52.520;13.332;2022-12-29T12:03:18;100105.81;;;12.51;69.90
19096;BME280;9680;52.520;13.332;2022-12-29T12:05:50;100106.09;;;12.31;71.30
19096;BME280;9680;52.520;13.332;2022-12-29T12:08:29;100110.00;;;12.06;72.37
19096;BME280;9680;52.520;13.332;2022-12-29T12:11:04;100104.59;;;11.93;72.97
19096;BME280;9680;52.520;13.332;2022-12-29T12:13:41;100117.47;;;11.80;74.48
19096;BME280;9680;52.520;13.332;2022-12-29T12:16:13;100119.03;;;11.67;74.65
19096;BME280;9680;52.520;13.332;2022-12-29T12:18:48;100130.56;;;11.62;75.47
19096;BME280;9680;52.520;13.332;2022-12-29T12:21:21;100136.06;;;11.56;76.17
19096;BME280;9680;52.520;13.332;2022-12-29T12:24:18;100133.88;;;11.48;76.48
19096;BME280;9680;52.520;13.332;2022-12-29T12:26:55;100118.88;;;11.52;77.04
19096;BME280;9680;52.520;13.332;2022-12-29T12:29:28;100114.59;;;11.51;76.43
19096;BME280;9680;52.520;13.332;2022-12-29T12:32:02;100115.44;;;11.51;76.74
19096;BME280;9680;52.520;13.332;2022-12-29T12:34:36;100114.69;;;11.49;76.62
19096;BME280;9680;52.520;13.332;2022-12-29T12:40:20;100114.44;;;11.54;76.30
19096;BME280;9680;52.520;13.332;2022-12-29T12:43:00;100123.72;;;11.60;76.09
19096;BME280;9680;52.520;13.332;2022-12-29T12:45:45;100115.03;;;11.59;76.05
19096;BME280;9680;52.520;13.332;2022-12-29T12:48:30;100109.22;;;11.54;75.77
19096;BME280;9680;52.520;13.332;2022-12-29T12:51:07;100106.41;;;11.41;75.83
19096;BME280;9680;52.520;13.332;2022-12-29T12:53:47;100116.78;;;11.25;76.16
19096;BME280;9680;52.520;13.332;2022-12-29T12:56:38;100127.06;;;11.11;76.12
19096;BME280;9680;52.520;13.332;2022-12-29T12:59:16;100131.72;;;11.04;76.56
19096;BME280;9680;52.520;13.332;2022-12-29T13:01:57;100134.72;;;10.96;76.92
19096;BME280;9680;52.520;13.332;2022-12-29T13:04:40;100136.84;;;10.88;77.23
19096;BME280;9680;52.520;13.332;2022-12-29T13:07:17;100123.28;;;10.81;77.37
19096;BME280;9680;52.520;13.332;2022-12-29T13:10:02;100124.34;;;10.77;77.68
19096;BME280;9680;52.520;13.332;2022-12-29T13:12:38;100120.91;;;10.76;77.94
19096;BME280;9680;52.520;13.332;2022-12-29T13:15:20;100134.06;;;10.73;78.38
19096;BME280;9680;52.520;13.332;2022-12-29T13:17:55;100134.84;;;10.75;78.16
19096;BME280;9680;52.520;13.332;2022-12-29T13:20:30;100132.38;;;10.72;78.58
19096;BME280;9680;52.520;13.332;2022-12-29T13:23:04;100137.75;;;10.69;79.01
19096;BME280;9680;52.520;13.332;2022-12-29T13:25:39;100137.97;;;10.65;79.29